KNQA/NQA METAR and TAF weather

Enter ICAO airport designator
Station Type Date Time Source
KNQA METAR 2021/01/22 05:50 UTC NOAA

KNQA 220550Z 00000KT 10SM CLR 05/05 A2997


Station Type Date Time Source
KNQA Decoded METAR 2021/01/22 05:50 UTC NOAA

Millington, Millington Municipal Airport, TN, United States (KNQA) 35-21-24N 089-52-13W
Jan 22, 2021 - 12:50 AM EST / 2021.01.22 0550 UTC
Wind: Calm:0
Visibility: 10 mile(s):0
Sky conditions: clear
Temperature: 41 F (5 C)
Dew Point: 41 F (5 C)
Relative Humidity: 100%
Pressure (altimeter): 29.97 in. Hg (1014 hPa)
ob: KNQA 220550Z 00000KT 10SM CLR 05/05 A2997
cycle: 6

Station Type Date Time Source
KNQA TAF UTC NOAA

Error!

Example: see airport list